createdAt,value
2023-01-04T00:04:21.156Z,52.6
2023-01-04T00:09:39.349Z,53.2
2023-01-04T00:14:57.855Z,53.1
2023-01-04T00:20:16.360Z,52.6
2023-01-04T00:25:35.098Z,52.4
2023-01-04T00:30:53.191Z,51.4
2023-01-04T00:36:11.657Z,51.6
2023-01-04T00:42:01.608Z,50.2
2023-01-04T00:47:20.033Z,51.6
2023-01-04T00:52:38.543Z,51
2023-01-04T00:57:57.233Z,51.8
2023-01-04T01:03:15.997Z,51.3
2023-01-04T01:08:34.883Z,51.9
2023-01-04T01:13:53.064Z,51.6
2023-01-04T01:19:11.539Z,51.8
2023-01-04T01:24:30.046Z,51.4
2023-01-04T01:29:48.225Z,51.3
2023-01-04T01:34:50.813Z,51.6
2023-01-04T01:40:09.267Z,51.4
2023-01-04T01:45:27.153Z,51.5
2023-01-04T01:50:45.093Z,51.6
2023-01-04T01:56:03.883Z,51.6
2023-01-04T02:01:22.906Z,52
2023-01-04T02:06:41.428Z,52.9
2023-01-04T02:11:59.404Z,51.9
2023-01-04T02:17:17.296Z,52.7
2023-01-04T02:22:36.062Z,52.9
2023-01-04T02:27:55.077Z,52.9
2023-01-04T02:33:13.835Z,52.2
2023-01-04T02:38:32.586Z,52.9
2023-01-04T02:43:51.155Z,52.8
2023-01-04T02:49:09.621Z,52.4
2023-01-04T02:54:28.384Z,52.8
2023-01-04T02:59:47.332Z,52.8
2023-01-04T03:05:05.786Z,52.8
2023-01-04T03:10:24.288Z,52.9
2023-01-04T03:15:43.204Z,53.6
2023-01-04T03:21:01.694Z,52.7
2023-01-04T03:26:20.187Z,52.9
2023-01-04T03:31:23.378Z,53.8
2023-01-04T03:36:42.153Z,53
2023-01-04T03:42:00.364Z,54
2023-01-04T03:47:19.112Z,53.5
2023-01-04T03:52:37.597Z,53.9
2023-01-04T03:57:55.790Z,53.3
2023-01-04T04:03:14.585Z,53.3
2023-01-04T04:08:33.338Z,53.5
2023-01-04T04:13:52.109Z,53.8
2023-01-04T04:19:10.066Z,54.1
2023-01-04T04:24:28.547Z,53.5
2023-01-04T04:29:47.319Z,52.9
2023-01-04T04:35:06.149Z,53.6
2023-01-04T04:40:24.374Z,52.9
2023-01-04T04:45:42.492Z,53.6
2023-01-04T04:51:01.030Z,53.2
2023-01-04T04:56:19.252Z,53
2023-01-04T05:01:38.407Z,53.4
2023-01-04T05:06:57.026Z,52.7
2023-01-04T05:11:59.863Z,53.7
2023-01-04T05:17:02.992Z,53.7
2023-01-04T05:22:21.066Z,53.5
2023-01-04T05:27:39.340Z,53.4
2023-01-04T05:32:59.188Z,53.1
2023-01-04T05:38:18.134Z,52.8
2023-01-04T05:43:21.283Z,53.6
2023-01-04T05:48:39.753Z,53.5
2023-01-04T05:53:57.988Z,53.1
2023-01-04T05:59:16.285Z,52.9
2023-01-04T06:04:34.998Z,53.3
2023-01-04T06:09:52.959Z,53.3
2023-01-04T06:15:11.415Z,53
2023-01-04T06:20:29.911Z,53.7
2023-01-04T06:25:48.580Z,53
2023-01-04T06:31:07.033Z,53.6
2023-01-04T06:36:25.869Z,53.8
2023-01-04T06:41:44.131Z,53.3
2023-01-04T06:47:02.593Z,53.2
2023-01-04T06:52:21.070Z,53.3
2023-01-04T06:57:39.030Z,52.5
2023-01-04T07:03:16.762Z,52.7
2023-01-04T07:08:35.291Z,51.7
2023-01-04T07:13:53.591Z,52.7
2023-01-04T07:19:12.095Z,52.7
2023-01-04T07:24:31.495Z,51.9
2023-01-04T07:29:50.161Z,52.6
2023-01-04T07:35:08.654Z,52.1
2023-01-04T07:40:27.408Z,52.6
2023-01-04T07:45:45.923Z,51.8
2023-01-04T07:51:04.424Z,52.7
2023-01-04T07:56:22.930Z,51.8
2023-01-04T08:01:41.671Z,51.8
2023-01-04T08:07:00.174Z,51.6
2023-01-04T08:12:18.913Z,52.7
2023-01-04T08:17:37.553Z,52.7
2023-01-04T08:22:56.105Z,52.2
2023-01-04T08:28:14.636Z,52
2023-01-04T08:33:33.019Z,51.9
2023-01-04T08:39:02.612Z,52
2023-01-04T08:44:20.818Z,52.4
2023-01-04T08:49:38.821Z,51.8
2023-01-04T08:54:57.337Z,52.6
2023-01-04T09:00:15.545Z,52.5
2023-01-04T09:05:33.927Z,51.8
2023-01-04T09:10:52.702Z,51.7
2023-01-04T09:16:11.732Z,51.9
2023-01-04T09:21:30.196Z,51.8
2023-01-04T09:26:48.448Z,51.7
2023-01-04T09:32:17.172Z,52.1
2023-01-04T09:37:35.732Z,52.3
2023-01-04T09:43:22.828Z,51.7
2023-01-04T09:48:41.036Z,51.4
2023-01-04T09:53:59.540Z,52.3
2023-01-04T09:59:17.995Z,51.6
2023-01-04T10:04:39.148Z,52.4
2023-01-04T10:09:57.585Z,51.6
2023-01-04T10:15:16.080Z,51.6
2023-01-04T10:21:34.817Z,52.3
2023-01-04T10:26:53.245Z,51.6
2023-01-04T10:32:11.749Z,51.8
2023-01-04T10:37:29.940Z,51.6
2023-01-04T10:42:48.196Z,52
2023-01-04T10:48:06.663Z,51.6
2023-01-04T10:53:25.125Z,51.2
2023-01-04T10:58:43.176Z,51.8
2023-01-04T11:04:01.674Z,51.2
2023-01-04T11:09:26.198Z,52.2
2023-01-04T11:14:45.197Z,52.3
2023-01-04T11:20:03.448Z,52.4
2023-01-04T11:25:38.252Z,51.5
2023-01-04T11:30:56.624Z,51.6
2023-01-04T11:36:14.807Z,52.2
2023-01-04T11:41:32.747Z,52.4
2023-01-04T11:46:51.285Z,51.6
2023-01-04T11:52:09.497Z,52.1
2023-01-04T11:57:27.968Z,52
2023-01-04T12:03:03.533Z,51.8
2023-01-04T12:08:22.058Z,51.7
2023-01-04T12:13:40.537Z,52.2
2023-01-04T12:18:58.807Z,51.7
2023-01-04T12:24:17.010Z,52.5
2023-01-04T12:29:35.206Z,51.6
2023-01-04T12:34:53.497Z,51.6
2023-01-04T12:40:11.711Z,51.7
2023-01-04T12:45:30.205Z,52.1
2023-01-04T12:51:32.601Z,51.9
2023-01-04T12:56:51.459Z,51.6
2023-01-04T13:02:10.586Z,51.4
2023-01-04T13:07:28.750Z,52.3
2023-01-04T13:12:47.161Z,51.4
2023-01-04T13:18:05.669Z,51.3
2023-01-04T13:23:23.917Z,51.3
2023-01-04T13:28:42.667Z,52.3
2023-01-04T13:34:01.456Z,52.1
2023-01-04T13:39:19.970Z,51.3
2023-01-04T13:45:22.386Z,51.2
2023-01-04T13:50:40.978Z,51.5
2023-01-04T13:55:59.796Z,51.2
2023-01-04T14:01:18.527Z,51.2
2023-01-04T14:06:37.543Z,51.3
2023-01-04T14:40:09.632Z,51.1
2023-01-04T14:45:28.447Z,51.6
2023-01-04T14:50:46.721Z,51.8
2023-01-04T14:56:04.913Z,51.2
2023-01-04T15:01:24.158Z,52
2023-01-04T15:06:43.059Z,51.7
2023-01-04T15:12:01.301Z,51.6
2023-01-04T15:17:20.057Z,51.6
2023-01-04T15:22:38.847Z,51.9
2023-01-04T15:27:57.074Z,51.5
2023-01-04T15:33:15.848Z,51.7
2023-01-04T15:38:34.632Z,51.3
2023-01-04T15:43:52.837Z,50.9
2023-01-04T15:49:18.361Z,51.6
2023-01-04T15:54:36.861Z,52
2023-01-04T15:59:55.075Z,51.8
2023-01-04T16:05:13.862Z,51.4
2023-01-04T16:10:31.824Z,51.4
2023-01-04T16:15:50.574Z,51.2
2023-01-04T16:21:08.601Z,51
2023-01-04T16:26:27.121Z,51.5
2023-01-04T16:31:46.266Z,51.1
2023-01-04T16:37:04.907Z,51.4
2023-01-04T16:42:23.118Z,51.7
2023-01-04T16:47:41.466Z,51.9
2023-01-04T16:52:59.952Z,52.5
2023-01-04T16:58:18.507Z,52
2023-01-04T17:03:37.084Z,52.4
2023-01-04T17:08:55.673Z,51.5
2023-01-04T17:14:13.896Z,51.7
2023-01-04T17:19:31.926Z,52.1
2023-01-04T17:24:50.429Z,53.9
2023-01-04T17:30:09.261Z,52.4
2023-01-04T17:35:28.095Z,53
2023-01-04T17:40:46.863Z,53
2023-01-04T17:46:05.556Z,52.9
2023-01-04T17:51:24.059Z,52.1
2023-01-04T17:56:42.526Z,52.6
2023-01-04T18:02:01.611Z,52.8
2023-01-04T18:07:19.877Z,51.8
2023-01-04T18:12:23.765Z,51.9
2023-01-04T18:17:42.272Z,51.9
2023-01-04T18:23:04.452Z,52.5
2023-01-04T18:28:23.226Z,52.7
2023-01-04T18:33:42.040Z,51.9
2023-01-04T18:39:00.795Z,54
2023-01-04T18:44:38.706Z,53.4
2023-01-04T18:49:58.393Z,52.7
2023-01-04T18:55:17.185Z,53.3
2023-01-04T19:00:35.631Z,53.4
2023-01-04T19:05:53.873Z,52.9
2023-01-04T19:11:12.069Z,53.5
2023-01-04T19:16:30.417Z,53
2023-01-04T19:21:48.747Z,53.6
2023-01-04T19:27:07.255Z,53.7
2023-01-04T19:32:10.132Z,53.2
2023-01-04T19:37:31.048Z,53.1
2023-01-04T19:42:49.243Z,53.2
2023-01-04T19:48:07.817Z,53.5
2023-01-04T19:53:26.027Z,53.4
2023-01-04T19:58:44.589Z,53.4
2023-01-04T20:04:03.109Z,52.9
2023-01-04T20:09:21.588Z,52.7
2023-01-04T20:14:39.534Z,52.9
2023-01-04T20:19:58.293Z,52.8
2023-01-04T20:25:17.075Z,53.2
2023-01-04T20:30:36.096Z,52.7
2023-01-04T20:35:54.861Z,52.9
2023-01-04T20:41:13.653Z,53
2023-01-04T20:46:32.480Z,54
2023-01-04T20:51:51.232Z,52.8
2023-01-04T20:57:09.737Z,52.8
2023-01-04T21:02:35.997Z,53.9
2023-01-04T21:07:56.395Z,53.4
2023-01-04T21:13:14.640Z,53.6
2023-01-04T21:18:33.106Z,53.5
2023-01-04T21:23:58.488Z,54.3
2023-01-04T21:29:16.982Z,54.3
2023-01-04T21:34:35.761Z,54
2023-01-04T21:39:53.947Z,53.7
2023-01-04T21:45:12.484Z,54.1
2023-01-04T21:50:30.440Z,53.4
2023-01-04T21:55:49.047Z,53.6
2023-01-04T22:01:06.989Z,54.2
2023-01-04T22:06:25.314Z,53.5
2023-01-04T22:11:44.099Z,54.4
2023-01-04T22:17:02.857Z,53.7
2023-01-04T22:22:21.079Z,54.1
2023-01-04T22:27:39.293Z,53.6
2023-01-04T22:32:57.795Z,54.1
2023-01-04T22:38:16.555Z,54.3
2023-01-04T22:43:35.042Z,53.8
2023-01-04T22:48:53.304Z,53.7
2023-01-04T22:54:11.775Z,54.2
2023-01-04T22:59:30.556Z,54.3
2023-01-04T23:04:49.355Z,54.3
2023-01-04T23:10:07.537Z,54.7
2023-01-04T23:15:26.044Z,54.8
2023-01-04T23:20:44.551Z,54.9
2023-01-04T23:26:03.214Z,54.3
2023-01-04T23:31:22.207Z,54.4
2023-01-04T23:36:40.444Z,55.4
2023-01-04T23:41:58.909Z,54.9
2023-01-04T23:47:17.402Z,54.7
2023-01-04T23:52:36.199Z,55.1
2023-01-04T23:57:55.025Z,54.2
